sensor_id;sensor_type;location;lat;lon;timestamp;P1;durP1;ratioP1;P2;durP2;ratioP2
25481;SDS011;13395;50.752;4.268;2022-09-09T00:04:16;6.28;;;1.50;;
25481;SDS011;13395;50.752;4.268;2022-09-09T00:07:35;6.18;;;2.05;;
25481;SDS011;13395;50.752;4.268;2022-09-09T00:12:19;2.33;;;1.30;;
25481;SDS011;13395;50.752;4.268;2022-09-09T00:15:07;7.28;;;2.30;;
25481;SDS011;13395;50.752;4.268;2022-09-09T00:17:39;11.02;;;2.92;;
25481;SDS011;13395;50.752;4.268;2022-09-09T00:20:14;10.45;;;1.73;;
25481;SDS011;13395;50.752;4.268;2022-09-09T00:22:57;10.23;;;1.83;;
25481;SDS011;13395;50.752;4.268;2022-09-09T00:27:58;10.27;;;1.92;;
25481;SDS011;13395;50.752;4.268;2022-09-09T00:30:24;5.43;;;1.73;;
25481;SDS011;13395;50.752;4.268;2022-09-09T00:33:00;7.53;;;1.58;;
25481;SDS011;13395;50.752;4.268;2022-09-09T00:35:34;5.15;;;1.60;;
25481;SDS011;13395;50.752;4.268;2022-09-09T00:38:12;4.68;;;1.27;;
25481;SDS011;13395;50.752;4.268;2022-09-09T00:41:00;9.35;;;1.75;;
25481;SDS011;13395;50.752;4.268;2022-09-09T00:43:43;4.53;;;1.63;;
25481;SDS011;13395;50.752;4.268;2022-09-09T00:46:25;5.20;;;1.50;;
25481;SDS011;13395;50.752;4.268;2022-09-09T00:57:32;5.65;;;1.75;;
25481;SDS011;13395;50.752;4.268;2022-09-09T01:02:50;8.20;;;1.60;;
25481;SDS011;13395;50.752;4.268;2022-09-09T01:05:43;5.47;;;1.50;;
25481;SDS011;13395;50.752;4.268;2022-09-09T01:11:23;5.93;;;1.52;;
25481;SDS011;13395;50.752;4.268;2022-09-09T01:14:10;5.82;;;1.30;;
25481;SDS011;13395;50.752;4.268;2022-09-09T01:16:46;6.93;;;1.52;;
25481;SDS011;13395;50.752;4.268;2022-09-09T01:19:15;7.25;;;1.73;;
25481;SDS011;13395;50.752;4.268;2022-09-09T01:21:50;6.53;;;1.63;;
25481;SDS011;13395;50.752;4.268;2022-09-09T01:27:22;7.65;;;1.83;;
25481;SDS011;13395;50.752;4.268;2022-09-09T01:29:50;10.30;;;2.17;;
25481;SDS011;13395;50.752;4.268;2022-09-09T01:35:07;11.57;;;2.50;;
25481;SDS011;13395;50.752;4.268;2022-09-09T01:37:37;7.15;;;2.53;;
25481;SDS011;13395;50.752;4.268;2022-09-09T01:40:02;11.45;;;2.40;;
25481;SDS011;13395;50.752;4.268;2022-09-09T01:42:28;9.93;;;2.17;;
25481;SDS011;13395;50.752;4.268;2022-09-09T01:44:54;19.58;;;2.72;;
25481;SDS011;13395;50.752;4.268;2022-09-09T01:47:20;9.38;;;2.17;;
25481;SDS011;13395;50.752;4.268;2022-09-09T01:49:45;9.38;;;2.47;;
25481;SDS011;13395;50.752;4.268;2022-09-09T01:52:11;13.82;;;2.42;;
25481;SDS011;13395;50.752;4.268;2022-09-09T01:54:37;2.75;;;1.33;;
25481;SDS011;13395;50.752;4.268;2022-09-09T01:57:08;10.18;;;2.95;;
25481;SDS011;13395;50.752;4.268;2022-09-09T02:00:12;9.27;;;2.38;;
25481;SDS011;13395;50.752;4.268;2022-09-09T02:08:16;11.07;;;3.30;;
25481;SDS011;13395;50.752;4.268;2022-09-09T02:10:47;7.55;;;2.50;;
25481;SDS011;13395;50.752;4.268;2022-09-09T02:13:19;11.57;;;2.13;;
25481;SDS011;13395;50.752;4.268;2022-09-09T02:15:54;17.15;;;2.70;;
25481;SDS011;13395;50.752;4.268;2022-09-09T02:21:13;12.10;;;2.70;;
25481;SDS011;13395;50.752;4.268;2022-09-09T02:23:42;9.85;;;2.22;;
25481;SDS011;13395;50.752;4.268;2022-09-09T02:26:10;15.73;;;2.53;;
25481;SDS011;13395;50.752;4.268;2022-09-09T02:28:38;9.85;;;2.25;;
25481;SDS011;13395;50.752;4.268;2022-09-09T02:31:05;11.77;;;2.22;;
25481;SDS011;13395;50.752;4.268;2022-09-09T02:33:42;9.50;;;2.10;;
25481;SDS011;13395;50.752;4.268;2022-09-09T02:36:10;9.65;;;2.10;;
25481;SDS011;13395;50.752;4.268;2022-09-09T02:38:42;9.35;;;2.45;;
25481;SDS011;13395;50.752;4.268;2022-09-09T02:41:23;10.20;;;2.17;;
25481;SDS011;13395;50.752;4.268;2022-09-09T02:43:52;13.77;;;2.35;;
25481;SDS011;13395;50.752;4.268;2022-09-09T02:49:09;9.05;;;2.25;;
25481;SDS011;13395;50.752;4.268;2022-09-09T02:54:35;11.05;;;2.83;;
25481;SDS011;13395;50.752;4.268;2022-09-09T02:59:47;11.02;;;2.65;;
25481;SDS011;13395;50.752;4.268;2022-09-09T03:02:14;14.57;;;2.58;;
25481;SDS011;13395;50.752;4.268;2022-09-09T03:04:39;13.65;;;2.50;;
25481;SDS011;13395;50.752;4.268;2022-09-09T03:07:08;8.85;;;3.22;;
25481;SDS011;13395;50.752;4.268;2022-09-09T03:09:34;8.73;;;1.90;;
25481;SDS011;13395;50.752;4.268;2022-09-09T03:12:00;13.32;;;2.25;;
25481;SDS011;13395;50.752;4.268;2022-09-09T03:14:26;7.05;;;2.35;;
25481;SDS011;13395;50.752;4.268;2022-09-09T03:16:52;11.82;;;2.35;;
25481;SDS011;13395;50.752;4.268;2022-09-09T03:19:18;11.50;;;2.50;;
25481;SDS011;13395;50.752;4.268;2022-09-09T03:21:45;12.32;;;3.40;;
25481;SDS011;13395;50.752;4.268;2022-09-09T03:24:12;15.95;;;2.97;;
25481;SDS011;13395;50.752;4.268;2022-09-09T03:26:39;11.93;;;2.40;;
25481;SDS011;13395;50.752;4.268;2022-09-09T03:29:05;11.65;;;2.85;;
25481;SDS011;13395;50.752;4.268;2022-09-09T03:31:32;11.77;;;2.35;;
25481;SDS011;13395;50.752;4.268;2022-09-09T03:33:59;7.30;;;2.70;;
25481;SDS011;13395;50.752;4.268;2022-09-09T03:36:25;11.85;;;2.75;;
25481;SDS011;13395;50.752;4.268;2022-09-09T03:38:52;8.25;;;2.50;;
25481;SDS011;13395;50.752;4.268;2022-09-09T03:41:19;9.23;;;1.90;;
25481;SDS011;13395;50.752;4.268;2022-09-09T03:43:48;11.85;;;3.22;;
25481;SDS011;13395;50.752;4.268;2022-09-09T03:46:21;9.32;;;2.33;;
25481;SDS011;13395;50.752;4.268;2022-09-09T03:48:48;14.60;;;2.40;;
25481;SDS011;13395;50.752;4.268;2022-09-09T03:51:13;9.40;;;2.85;;
25481;SDS011;13395;50.752;4.268;2022-09-09T03:53:40;12.35;;;2.70;;
25481;SDS011;13395;50.752;4.268;2022-09-09T03:56:07;10.77;;;2.13;;
25481;SDS011;13395;50.752;4.268;2022-09-09T03:58:33;16.42;;;2.45;;
25481;SDS011;13395;50.752;4.268;2022-09-09T04:01:00;11.77;;;3.65;;
25481;SDS011;13395;50.752;4.268;2022-09-09T04:03:27;10.48;;;2.85;;
25481;SDS011;13395;50.752;4.268;2022-09-09T04:05:53;12.05;;;2.28;;
25481;SDS011;13395;50.752;4.268;2022-09-09T04:08:21;10.60;;;2.20;;
25481;SDS011;13395;50.752;4.268;2022-09-09T04:10:48;10.73;;;2.03;;
25481;SDS011;13395;50.752;4.268;2022-09-09T04:13:14;17.58;;;3.08;;
25481;SDS011;13395;50.752;4.268;2022-09-09T04:15:44;11.38;;;2.67;;
25481;SDS011;13395;50.752;4.268;2022-09-09T04:18:25;11.02;;;2.10;;
25481;SDS011;13395;50.752;4.268;2022-09-09T04:20:53;12.27;;;2.97;;
25481;SDS011;13395;50.752;4.268;2022-09-09T04:23:20;11.80;;;2.50;;
25481;SDS011;13395;50.752;4.268;2022-09-09T04:25:49;8.20;;;2.35;;
25481;SDS011;13395;50.752;4.268;2022-09-09T04:28:17;11.00;;;2.00;;
25481;SDS011;13395;50.752;4.268;2022-09-09T04:30:45;11.77;;;3.72;;
25481;SDS011;13395;50.752;4.268;2022-09-09T04:33:11;16.42;;;2.83;;
25481;SDS011;13395;50.752;4.268;2022-09-09T04:35:37;11.40;;;2.80;;
25481;SDS011;13395;50.752;4.268;2022-09-09T04:38:04;19.27;;;3.15;;
25481;SDS011;13395;50.752;4.268;2022-09-09T04:40:32;20.83;;;2.90;;
25481;SDS011;13395;50.752;4.268;2022-09-09T04:42:58;8.00;;;2.20;;
25481;SDS011;13395;50.752;4.268;2022-09-09T04:45:26;7.80;;;2.45;;
25481;SDS011;13395;50.752;4.268;2022-09-09T04:47:52;15.57;;;2.85;;
25481;SDS011;13395;50.752;4.268;2022-09-09T04:50:18;9.85;;;2.70;;
25481;SDS011;13395;50.752;4.268;2022-09-09T04:52:44;14.00;;;3.03;;
25481;SDS011;13395;50.752;4.268;2022-09-09T04:55:10;10.60;;;2.67;;
25481;SDS011;13395;50.752;4.268;2022-09-09T04:57:38;12.50;;;2.33;;
25481;SDS011;13395;50.752;4.268;2022-09-09T05:00:04;7.53;;;3.08;;
25481;SDS011;13395;50.752;4.268;2022-09-09T05:02:30;8.73;;;2.65;;
25481;SDS011;13395;50.752;4.268;2022-09-09T05:04:57;14.52;;;3.05;;
25481;SDS011;13395;50.752;4.268;2022-09-09T05:07:23;14.82;;;2.95;;
25481;SDS011;13395;50.752;4.268;2022-09-09T05:09:49;11.95;;;2.90;;
25481;SDS011;13395;50.752;4.268;2022-09-09T05:12:15;25.73;;;3.70;;
25481;SDS011;13395;50.752;4.268;2022-09-09T05:14:42;13.50;;;2.33;;
25481;SDS011;13395;50.752;4.268;2022-09-09T05:17:09;6.68;;;2.08;;
25481;SDS011;13395;50.752;4.268;2022-09-09T05:19:35;12.27;;;2.58;;
25481;SDS011;13395;50.752;4.268;2022-09-09T05:22:01;10.75;;;2.17;;
25481;SDS011;13395;50.752;4.268;2022-09-09T05:24:27;15.23;;;2.75;;
25481;SDS011;13395;50.752;4.268;2022-09-09T05:26:53;9.88;;;2.85;;
25481;SDS011;13395;50.752;4.268;2022-09-09T05:29:18;13.02;;;4.28;;
25481;SDS011;13395;50.752;4.268;2022-09-09T05:31:44;11.65;;;2.50;;
25481;SDS011;13395;50.752;4.268;2022-09-09T05:34:12;12.55;;;2.70;;
25481;SDS011;13395;50.752;4.268;2022-09-09T05:36:37;12.48;;;3.90;;
25481;SDS011;13395;50.752;4.268;2022-09-09T05:39:03;10.52;;;2.90;;
25481;SDS011;13395;50.752;4.268;2022-09-09T05:41:29;15.63;;;2.67;;
25481;SDS011;13395;50.752;4.268;2022-09-09T05:43:56;8.05;;;3.17;;
25481;SDS011;13395;50.752;4.268;2022-09-09T05:46:24;10.35;;;2.35;;
25481;SDS011;13395;50.752;4.268;2022-09-09T05:48:51;11.90;;;2.38;;
25481;SDS011;13395;50.752;4.268;2022-09-09T05:51:27;11.60;;;2.38;;
25481;SDS011;13395;50.752;4.268;2022-09-09T05:53:55;12.85;;;2.83;;
25481;SDS011;13395;50.752;4.268;2022-09-09T05:56:24;9.20;;;2.95;;
25481;SDS011;13395;50.752;4.268;2022-09-09T05:58:51;9.25;;;2.65;;
25481;SDS011;13395;50.752;4.268;2022-09-09T06:01:21;14.73;;;2.00;;
25481;SDS011;13395;50.752;4.268;2022-09-09T06:03:49;9.63;;;2.30;;
25481;SDS011;13395;50.752;4.268;2022-09-09T06:06:17;14.13;;;2.53;;
25481;SDS011;13395;50.752;4.268;2022-09-09T06:08:47;7.18;;;2.10;;
25481;SDS011;13395;50.752;4.268;2022-09-09T06:11:17;13.63;;;2.58;;
25481;SDS011;13395;50.752;4.268;2022-09-09T06:13:44;10.32;;;2.17;;
25481;SDS011;13395;50.752;4.268;2022-09-09T06:16:10;17.00;;;2.58;;
25481;SDS011;13395;50.752;4.268;2022-09-09T06:18:38;9.27;;;1.77;;
25481;SDS011;13395;50.752;4.268;2022-09-09T06:21:04;11.23;;;2.42;;
25481;SDS011;13395;50.752;4.268;2022-09-09T06:23:33;6.25;;;1.70;;
25481;SDS011;13395;50.752;4.268;2022-09-09T06:26:03;9.68;;;2.38;;
25481;SDS011;13395;50.752;4.268;2022-09-09T06:28:34;16.10;;;2.05;;
25481;SDS011;13395;50.752;4.268;2022-09-09T06:31:04;11.02;;;1.90;;
25481;SDS011;13395;50.752;4.268;2022-09-09T06:33:32;10.00;;;1.88;;
25481;SDS011;13395;50.752;4.268;2022-09-09T06:36:00;10.65;;;1.90;;
25481;SDS011;13395;50.752;4.268;2022-09-09T06:38:26;13.38;;;2.42;;
25481;SDS011;13395;50.752;4.268;2022-09-09T06:40:53;6.90;;;2.40;;
25481;SDS011;13395;50.752;4.268;2022-09-09T06:43:20;6.13;;;1.85;;
25481;SDS011;13395;50.752;4.268;2022-09-09T06:45:56;13.38;;;2.33;;
25481;SDS011;13395;50.752;4.268;2022-09-09T06:48:27;13.23;;;2.30;;
25481;SDS011;13395;50.752;4.268;2022-09-09T06:51:00;11.10;;;2.08;;
25481;SDS011;13395;50.752;4.268;2022-09-09T06:53:26;7.22;;;1.95;;
25481;SDS011;13395;50.752;4.268;2022-09-09T06:55:52;8.02;;;1.77;;
25481;SDS011;13395;50.752;4.268;2022-09-09T06:58:18;9.30;;;2.53;;
25481;SDS011;13395;50.752;4.268;2022-09-09T07:00:43;9.20;;;2.20;;
25481;SDS011;13395;50.752;4.268;2022-09-09T07:03:09;7.18;;;1.88;;
25481;SDS011;13395;50.752;4.268;2022-09-09T07:05:35;10.48;;;1.98;;
25481;SDS011;13395;50.752;4.268;2022-09-09T07:08:02;14.00;;;2.13;;
25481;SDS011;13395;50.752;4.268;2022-09-09T07:10:28;7.28;;;2.00;;
25481;SDS011;13395;50.752;4.268;2022-09-09T07:12:53;9.88;;;1.95;;
25481;SDS011;13395;50.752;4.268;2022-09-09T07:15:19;6.85;;;1.90;;
25481;SDS011;13395;50.752;4.268;2022-09-09T07:17:46;11.52;;;2.38;;
25481;SDS011;13395;50.752;4.268;2022-09-09T07:20:12;5.38;;;2.00;;
25481;SDS011;13395;50.752;4.268;2022-09-09T07:22:39;7.63;;;2.13;;
25481;SDS011;13395;50.752;4.268;2022-09-09T07:25:05;6.25;;;1.75;;
25481;SDS011;13395;50.752;4.268;2022-09-09T07:27:32;7.78;;;2.22;;
25481;SDS011;13395;50.752;4.268;2022-09-09T07:29:58;10.48;;;2.95;;
25481;SDS011;13395;50.752;4.268;2022-09-09T07:32:24;13.38;;;3.05;;
25481;SDS011;13395;50.752;4.268;2022-09-09T07:34:50;10.82;;;2.60;;
25481;SDS011;13395;50.752;4.268;2022-09-09T07:37:16;10.13;;;1.98;;
25481;SDS011;13395;50.752;4.268;2022-09-09T07:39:42;12.88;;;2.63;;
25481;SDS011;13395;50.752;4.268;2022-09-09T07:42:08;8.00;;;2.28;;
25481;SDS011;13395;50.752;4.268;2022-09-09T07:44:36;12.85;;;2.60;;
25481;SDS011;13395;50.752;4.268;2022-09-09T07:47:04;10.65;;;2.58;;
25481;SDS011;13395;50.752;4.268;2022-09-09T07:49:30;10.30;;;2.97;;
25481;SDS011;13395;50.752;4.268;2022-09-09T07:51:56;9.25;;;2.90;;
25481;SDS011;13395;50.752;4.268;2022-09-09T07:54:22;9.52;;;2.78;;
25481;SDS011;13395;50.752;4.268;2022-09-09T07:56:48;7.15;;;2.03;;
25481;SDS011;13395;50.752;4.268;2022-09-09T07:59:15;6.85;;;1.30;;
25481;SDS011;13395;50.752;4.268;2022-09-09T08:01:48;9.98;;;1.38;;
25481;SDS011;13395;50.752;4.268;2022-09-09T08:04:18;6.85;;;1.42;;
25481;SDS011;13395;50.752;4.268;2022-09-09T08:06:46;6.40;;;1.38;;
25481;SDS011;13395;50.752;4.268;2022-09-09T08:09:13;5.95;;;1.48;;
25481;SDS011;13395;50.752;4.268;2022-09-09T08:11:39;12.32;;;1.77;;
25481;SDS011;13395;50.752;4.268;2022-09-09T08:14:06;6.60;;;1.45;;
25481;SDS011;13395;50.752;4.268;2022-09-09T08:16:33;5.63;;;1.83;;
25481;SDS011;13395;50.752;4.268;2022-09-09T08:19:01;6.38;;;1.77;;
25481;SDS011;13395;50.752;4.268;2022-09-09T08:21:30;8.63;;;2.38;;
25481;SDS011;13395;50.752;4.268;2022-09-09T08:23:59;4.13;;;1.50;;
25481;SDS011;13395;50.752;4.268;2022-09-09T08:26:29;6.28;;;1.95;;
25481;SDS011;13395;50.752;4.268;2022-09-09T08:28:57;8.95;;;2.03;;
25481;SDS011;13395;50.752;4.268;2022-09-09T08:31:25;9.25;;;2.90;;
25481;SDS011;13395;50.752;4.268;2022-09-09T08:33:53;7.00;;;1.98;;
25481;SDS011;13395;50.752;4.268;2022-09-09T08:36:20;11.35;;;3.03;;
25481;SDS011;13395;50.752;4.268;2022-09-09T08:38:48;9.30;;;2.45;;
25481;SDS011;13395;50.752;4.268;2022-09-09T08:46:48;8.95;;;2.15;;
25481;SDS011;13395;50.752;4.268;2022-09-09T08:55:15;10.75;;;2.17;;
25481;SDS011;13395;50.752;4.268;2022-09-09T08:57:54;8.75;;;2.17;;
25481;SDS011;13395;50.752;4.268;2022-09-09T09:00:21;6.47;;;2.13;;
25481;SDS011;13395;50.752;4.268;2022-09-09T09:03:01;11.32;;;3.13;;
25481;SDS011;13395;50.752;4.268;2022-09-09T09:11:19;15.05;;;2.72;;
25481;SDS011;13395;50.752;4.268;2022-09-09T09:14:07;10.23;;;2.90;;
25481;SDS011;13395;50.752;4.268;2022-09-09T09:16:48;8.85;;;2.60;;
25481;SDS011;13395;50.752;4.268;2022-09-09T09:19:17;8.77;;;2.83;;
25481;SDS011;13395;50.752;4.268;2022-09-09T09:21:54;7.82;;;2.65;;
25481;SDS011;13395;50.752;4.268;2022-09-09T09:24:32;12.23;;;3.40;;
25481;SDS011;13395;50.752;4.268;2022-09-09T09:27:00;8.55;;;2.15;;
25481;SDS011;13395;50.752;4.268;2022-09-09T09:29:40;7.22;;;2.92;;
25481;SDS011;13395;50.752;4.268;2022-09-09T09:32:09;7.18;;;2.33;;
25481;SDS011;13395;50.752;4.268;2022-09-09T09:34:39;11.02;;;2.67;;
25481;SDS011;13395;50.752;4.268;2022-09-09T09:37:12;11.75;;;2.70;;
25481;SDS011;13395;50.752;4.268;2022-09-09T09:39:46;12.23;;;4.55;;
25481;SDS011;13395;50.752;4.268;2022-09-09T09:42:12;12.75;;;2.85;;
25481;SDS011;13395;50.752;4.268;2022-09-09T09:44:40;9.55;;;2.88;;
25481;SDS011;13395;50.752;4.268;2022-09-09T09:47:16;9.25;;;2.22;;
25481;SDS011;13395;50.752;4.268;2022-09-09T09:49:59;7.68;;;2.85;;
25481;SDS011;13395;50.752;4.268;2022-09-09T09:52:31;7.15;;;2.30;;
25481;SDS011;13395;50.752;4.268;2022-09-09T09:54:59;7.45;;;2.25;;
25481;SDS011;13395;50.752;4.268;2022-09-09T09:57:29;4.75;;;1.90;;
25481;SDS011;13395;50.752;4.268;2022-09-09T10:00:04;7.13;;;2.35;;
25481;SDS011;13395;50.752;4.268;2022-09-09T10:02:39;8.93;;;2.00;;
25481;SDS011;13395;50.752;4.268;2022-09-09T10:05:21;6.25;;;2.28;;
25481;SDS011;13395;50.752;4.268;2022-09-09T10:08:01;6.80;;;2.30;;
25481;SDS011;13395;50.752;4.268;2022-09-09T10:10:34;9.25;;;2.60;;
25481;SDS011;13395;50.752;4.268;2022-09-09T10:13:30;10.95;;;2.50;;
25481;SDS011;13395;50.752;4.268;2022-09-09T10:18:59;11.98;;;3.22;;
25481;SDS011;13395;50.752;4.268;2022-09-09T10:32:33;9.73;;;2.50;;
25481;SDS011;13395;50.752;4.268;2022-09-09T10:37:59;7.68;;;2.05;;
25481;SDS011;13395;50.752;4.268;2022-09-09T10:40:43;11.25;;;2.58;;
25481;SDS011;13395;50.752;4.268;2022-09-09T10:51:53;11.55;;;2.83;;
25481;SDS011;13395;50.752;4.268;2022-09-09T10:57:39;7.40;;;2.00;;
25481;SDS011;13395;50.752;4.268;2022-09-09T11:00:21;7.45;;;2.00;;
25481;SDS011;13395;50.752;4.268;2022-09-09T11:02:56;6.82;;;1.67;;
25481;SDS011;13395;50.752;4.268;2022-09-09T11:05:31;7.18;;;2.20;;
25481;SDS011;13395;50.752;4.268;2022-09-09T11:08:08;7.00;;;1.48;;
25481;SDS011;13395;50.752;4.268;2022-09-09T11:10:44;14.45;;;2.80;;
25481;SDS011;13395;50.752;4.268;2022-09-09T11:13:24;5.85;;;1.85;;
25481;SDS011;13395;50.752;4.268;2022-09-09T11:15:53;8.38;;;2.20;;
25481;SDS011;13395;50.752;4.268;2022-09-09T11:18:40;5.53;;;1.77;;
25481;SDS011;13395;50.752;4.268;2022-09-09T11:21:10;6.15;;;1.52;;
25481;SDS011;13395;50.752;4.268;2022-09-09T11:23:57;8.23;;;1.73;;
25481;SDS011;13395;50.752;4.268;2022-09-09T11:26:35;7.15;;;2.35;;
25481;SDS011;13395;50.752;4.268;2022-09-09T11:36:52;3.53;;;1.30;;
25481;SDS011;13395;50.752;4.268;2022-09-09T11:40:00;5.82;;;1.75;;
25481;SDS011;13395;50.752;4.268;2022-09-09T11:42:30;7.95;;;1.75;;
25481;SDS011;13395;50.752;4.268;2022-09-09T11:44:55;4.93;;;1.38;;
25481;SDS011;13395;50.752;4.268;2022-09-09T11:49:55;5.13;;;1.95;;
25481;SDS011;13395;50.752;4.268;2022-09-09T11:55:20;5.30;;;1.30;;
25481;SDS011;13395;50.752;4.268;2022-09-09T11:57:56;5.38;;;1.33;;
25481;SDS011;13395;50.752;4.268;2022-09-09T12:02:59;5.57;;;1.42;;
25481;SDS011;13395;50.752;4.268;2022-09-09T12:05:35;7.70;;;2.13;;
25481;SDS011;13395;50.752;4.268;2022-09-09T12:08:06;5.63;;;1.17;;
25481;SDS011;13395;50.752;4.268;2022-09-09T12:10:36;7.47;;;1.30;;
25481;SDS011;13395;50.752;4.268;2022-09-09T12:13:13;7.38;;;1.35;;
25481;SDS011;13395;50.752;4.268;2022-09-09T12:15:49;4.30;;;1.38;;
25481;SDS011;13395;50.752;4.268;2022-09-09T12:18:24;6.63;;;1.23;;
25481;SDS011;13395;50.752;4.268;2022-09-09T12:21:03;5.15;;;1.52;;
25481;SDS011;13395;50.752;4.268;2022-09-09T12:26:28;5.53;;;1.65;;
25481;SDS011;13395;50.752;4.268;2022-09-09T12:31:47;7.20;;;1.55;;
25481;SDS011;13395;50.752;4.268;2022-09-09T12:37:31;4.40;;;1.13;;
25481;SDS011;13395;50.752;4.268;2022-09-09T12:40:20;5.38;;;1.40;;
25481;SDS011;13395;50.752;4.268;2022-09-09T12:42:51;11.20;;;1.52;;
25481;SDS011;13395;50.752;4.268;2022-09-09T12:45:27;7.60;;;1.50;;
25481;SDS011;13395;50.752;4.268;2022-09-09T12:50:37;8.20;;;1.50;;
25481;SDS011;13395;50.752;4.268;2022-09-09T12:53:19;4.60;;;1.20;;
25481;SDS011;13395;50.752;4.268;2022-09-09T12:55:52;3.42;;;1.70;;
25481;SDS011;13395;50.752;4.268;2022-09-09T12:58:18;3.22;;;1.20;;
25481;SDS011;13395;50.752;4.268;2022-09-09T13:00:52;3.70;;;1.83;;
25481;SDS011;13395;50.752;4.268;2022-09-09T13:03:21;4.75;;;0.98;;
25481;SDS011;13395;50.752;4.268;2022-09-09T13:05:47;2.13;;;1.58;;
25481;SDS011;13395;50.752;4.268;2022-09-09T13:08:14;3.30;;;1.25;;
25481;SDS011;13395;50.752;4.268;2022-09-09T13:13:25;3.42;;;1.10;;
25481;SDS011;13395;50.752;4.268;2022-09-09T13:15:58;3.03;;;1.15;;
25481;SDS011;13395;50.752;4.268;2022-09-09T13:18:29;4.72;;;0.80;;
25481;SDS011;13395;50.752;4.268;2022-09-09T13:21:03;3.00;;;0.80;;
25481;SDS011;13395;50.752;4.268;2022-09-09T13:23:29;2.15;;;0.70;;
25481;SDS011;13395;50.752;4.268;2022-09-09T13:26:01;4.15;;;0.98;;
25481;SDS011;13395;50.752;4.268;2022-09-09T13:28:30;6.30;;;1.35;;
25481;SDS011;13395;50.752;4.268;2022-09-09T13:33:29;7.53;;;1.08;;
25481;SDS011;13395;50.752;4.268;2022-09-09T13:38:28;3.25;;;1.13;;
25481;SDS011;13395;50.752;4.268;2022-09-09T13:40:57;3.25;;;1.00;;
25481;SDS011;13395;50.752;4.268;2022-09-09T13:43:29;2.90;;;0.88;;
25481;SDS011;13395;50.752;4.268;2022-09-09T13:45:59;2.75;;;0.98;;
25481;SDS011;13395;50.752;4.268;2022-09-09T13:48:26;5.72;;;1.58;;
25481;SDS011;13395;50.752;4.268;2022-09-09T13:51:03;3.30;;;1.30;;
25481;SDS011;13395;50.752;4.268;2022-09-09T13:53:31;4.93;;;1.00;;
25481;SDS011;13395;50.752;4.268;2022-09-09T13:55:58;4.05;;;1.20;;
25481;SDS011;13395;50.752;4.268;2022-09-09T13:58:24;7.13;;;1.40;;
25481;SDS011;13395;50.752;4.268;2022-09-09T14:00:51;3.80;;;1.45;;
25481;SDS011;13395;50.752;4.268;2022-09-09T14:03:18;4.57;;;1.23;;
25481;SDS011;13395;50.752;4.268;2022-09-09T14:05:44;5.00;;;1.67;;
25481;SDS011;13395;50.752;4.268;2022-09-09T14:08:14;7.75;;;1.60;;
25481;SDS011;13395;50.752;4.268;2022-09-09T14:10:46;2.63;;;1.13;;
25481;SDS011;13395;50.752;4.268;2022-09-09T14:13:11;5.50;;;1.20;;
25481;SDS011;13395;50.752;4.268;2022-09-09T14:15:37;4.93;;;1.30;;
25481;SDS011;13395;50.752;4.268;2022-09-09T14:18:03;3.67;;;1.10;;
25481;SDS011;13395;50.752;4.268;2022-09-09T14:20:29;7.72;;;1.38;;
25481;SDS011;13395;50.752;4.268;2022-09-09T14:22:55;5.35;;;1.30;;
25481;SDS011;13395;50.752;4.268;2022-09-09T14:25:22;4.45;;;1.33;;
25481;SDS011;13395;50.752;4.268;2022-09-09T14:27:48;5.50;;;1.48;;
25481;SDS011;13395;50.752;4.268;2022-09-09T14:30:14;4.95;;;1.50;;
25481;SDS011;13395;50.752;4.268;2022-09-09T14:32:39;3.85;;;1.23;;
25481;SDS011;13395;50.752;4.268;2022-09-09T14:35:05;1.73;;;1.10;;
25481;SDS011;13395;50.752;4.268;2022-09-09T14:37:32;4.47;;;1.17;;
25481;SDS011;13395;50.752;4.268;2022-09-09T14:39:57;3.58;;;1.13;;
25481;SDS011;13395;50.752;4.268;2022-09-09T14:42:23;3.75;;;1.00;;
25481;SDS011;13395;50.752;4.268;2022-09-09T14:44:49;5.63;;;1.20;;
25481;SDS011;13395;50.752;4.268;2022-09-09T14:47:14;6.18;;;1.05;;
25481;SDS011;13395;50.752;4.268;2022-09-09T14:49:40;4.72;;;1.90;;
25481;SDS011;13395;50.752;4.268;2022-09-09T14:52:06;3.63;;;1.35;;
25481;SDS011;13395;50.752;4.268;2022-09-09T14:54:32;2.40;;;0.88;;
25481;SDS011;13395;50.752;4.268;2022-09-09T14:56:58;2.65;;;1.10;;
25481;SDS011;13395;50.752;4.268;2022-09-09T14:59:24;6.47;;;0.93;;
25481;SDS011;13395;50.752;4.268;2022-09-09T15:01:49;6.38;;;1.35;;
25481;SDS011;13395;50.752;4.268;2022-09-09T15:04:15;3.85;;;0.93;;
25481;SDS011;13395;50.752;4.268;2022-09-09T15:06:41;3.30;;;0.90;;
25481;SDS011;13395;50.752;4.268;2022-09-09T15:09:09;5.45;;;1.27;;
25481;SDS011;13395;50.752;4.268;2022-09-09T15:11:35;5.22;;;1.00;;
25481;SDS011;13395;50.752;4.268;2022-09-09T15:14:03;3.88;;;1.13;;
25481;SDS011;13395;50.752;4.268;2022-09-09T15:16:29;5.07;;;1.35;;
25481;SDS011;13395;50.752;4.268;2022-09-09T15:18:57;5.43;;;1.20;;
25481;SDS011;13395;50.752;4.268;2022-09-09T15:21:24;5.57;;;1.20;;
25481;SDS011;13395;50.752;4.268;2022-09-09T15:23:52;4.15;;;1.50;;
25481;SDS011;13395;50.752;4.268;2022-09-09T15:26:18;4.45;;;1.20;;
25481;SDS011;13395;50.752;4.268;2022-09-09T15:28:46;4.43;;;1.00;;
25481;SDS011;13395;50.752;4.268;2022-09-09T15:31:16;4.50;;;1.27;;
25481;SDS011;13395;50.752;4.268;2022-09-09T15:33:46;5.45;;;1.15;;
25481;SDS011;13395;50.752;4.268;2022-09-09T15:36:25;4.65;;;1.33;;
25481;SDS011;13395;50.752;4.268;2022-09-09T15:39:02;11.82;;;1.73;;
25481;SDS011;13395;50.752;4.268;2022-09-09T15:41:30;3.97;;;1.30;;
25481;SDS011;13395;50.752;4.268;2022-09-09T15:43:59;5.65;;;1.70;;
25481;SDS011;13395;50.752;4.268;2022-09-09T15:46:29;5.15;;;1.30;;
25481;SDS011;13395;50.752;4.268;2022-09-09T15:51:31;6.45;;;1.30;;
25481;SDS011;13395;50.752;4.268;2022-09-09T15:53:58;3.63;;;1.13;;
25481;SDS011;13395;50.752;4.268;2022-09-09T15:56:24;3.95;;;0.90;;
25481;SDS011;13395;50.752;4.268;2022-09-09T15:58:52;5.22;;;1.00;;
25481;SDS011;13395;50.752;4.268;2022-09-09T16:01:19;4.05;;;1.38;;
25481;SDS011;13395;50.752;4.268;2022-09-09T16:03:44;2.47;;;1.20;;
25481;SDS011;13395;50.752;4.268;2022-09-09T16:06:15;4.40;;;1.70;;
25481;SDS011;13395;50.752;4.268;2022-09-09T16:08:46;5.13;;;1.50;;
25481;SDS011;13395;50.752;4.268;2022-09-09T16:11:21;4.85;;;1.50;;
25481;SDS011;13395;50.752;4.268;2022-09-09T16:13:49;5.15;;;1.10;;
25481;SDS011;13395;50.752;4.268;2022-09-09T16:16:18;4.95;;;1.35;;
25481;SDS011;13395;50.752;4.268;2022-09-09T16:18:47;5.38;;;1.10;;
25481;SDS011;13395;50.752;4.268;2022-09-09T16:21:15;4.03;;;0.80;;
25481;SDS011;13395;50.752;4.268;2022-09-09T16:23:46;3.50;;;0.80;;
25481;SDS011;13395;50.752;4.268;2022-09-09T16:26:14;5.03;;;0.70;;
25481;SDS011;13395;50.752;4.268;2022-09-09T16:28:41;2.78;;;0.73;;
25481;SDS011;13395;50.752;4.268;2022-09-09T16:31:08;4.72;;;0.80;;
25481;SDS011;13395;50.752;4.268;2022-09-09T16:33:36;2.70;;;0.77;;
25481;SDS011;13395;50.752;4.268;2022-09-09T16:36:12;3.55;;;0.60;;
25481;SDS011;13395;50.752;4.268;2022-09-09T16:38:40;3.03;;;0.70;;
25481;SDS011;13395;50.752;4.268;2022-09-09T16:41:08;2.95;;;0.95;;
25481;SDS011;13395;50.752;4.268;2022-09-09T16:43:35;3.60;;;1.20;;
25481;SDS011;13395;50.752;4.268;2022-09-09T16:48:59;2.30;;;0.90;;
25481;SDS011;13395;50.752;4.268;2022-09-09T16:51:37;4.43;;;1.35;;
25481;SDS011;13395;50.752;4.268;2022-09-09T16:54:08;4.55;;;1.42;;
25481;SDS011;13395;50.752;4.268;2022-09-09T16:56:35;3.65;;;1.25;;
25481;SDS011;13395;50.752;4.268;2022-09-09T16:59:04;2.28;;;1.13;;
25481;SDS011;13395;50.752;4.268;2022-09-09T17:01:33;3.67;;;1.30;;
25481;SDS011;13395;50.752;4.268;2022-09-09T17:04:03;5.47;;;1.30;;
25481;SDS011;13395;50.752;4.268;2022-09-09T17:06:31;8.55;;;1.20;;
25481;SDS011;13395;50.752;4.268;2022-09-09T17:09:02;10.40;;;1.23;;
25481;SDS011;13395;50.752;4.268;2022-09-09T17:11:30;4.82;;;1.02;;